sensor_id;sensor_type;location;lat;lon;timestamp;P1;durP1;ratioP1;P2;durP2;ratioP2
7029;SDS011;3556;53.500;10.176;2023-09-19T00:02:17;3.43;;;2.40;;
7029;SDS011;3556;53.500;10.176;2023-09-19T00:04:43;3.10;;;2.07;;
7029;SDS011;3556;53.500;10.176;2023-09-19T00:07:08;4.07;;;2.17;;
7029;SDS011;3556;53.500;10.176;2023-09-19T00:09:34;3.10;;;1.80;;
7029;SDS011;3556;53.500;10.176;2023-09-19T00:12:04;2.30;;;2.10;;
7029;SDS011;3556;53.500;10.176;2023-09-19T00:14:31;3.73;;;2.13;;
7029;SDS011;3556;53.500;10.176;2023-09-19T00:16:59;2.10;;;1.90;;
7029;SDS011;3556;53.500;10.176;2023-09-19T00:19:25;2.20;;;2.00;;
7029;SDS011;3556;53.500;10.176;2023-09-19T00:21:51;4.03;;;2.00;;
7029;SDS011;3556;53.500;10.176;2023-09-19T00:24:18;2.17;;;1.87;;
7029;SDS011;3556;53.500;10.176;2023-09-19T00:26:43;4.60;;;2.27;;
7029;SDS011;3556;53.500;10.176;2023-09-19T00:29:11;3.87;;;2.37;;
7029;SDS011;3556;53.500;10.176;2023-09-19T00:31:42;5.83;;;2.20;;
7029;SDS011;3556;53.500;10.176;2023-09-19T00:34:08;2.23;;;2.13;;
7029;SDS011;3556;53.500;10.176;2023-09-19T00:36:35;4.63;;;2.10;;
7029;SDS011;3556;53.500;10.176;2023-09-19T00:39:03;3.47;;;2.57;;
7029;SDS011;3556;53.500;10.176;2023-09-19T00:41:30;2.80;;;2.60;;
7029;SDS011;3556;53.500;10.176;2023-09-19T00:44:01;3.47;;;2.27;;
7029;SDS011;3556;53.500;10.176;2023-09-19T00:46:27;2.47;;;2.27;;
7029;SDS011;3556;53.500;10.176;2023-09-19T00:48:53;4.40;;;2.80;;
7029;SDS011;3556;53.500;10.176;2023-09-19T00:51:19;3.00;;;2.17;;
7029;SDS011;3556;53.500;10.176;2023-09-19T00:53:47;2.40;;;2.20;;
7029;SDS011;3556;53.500;10.176;2023-09-19T00:56:13;3.10;;;2.47;;
7029;SDS011;3556;53.500;10.176;2023-09-19T00:58:43;2.30;;;2.10;;
7029;SDS011;3556;53.500;10.176;2023-09-19T01:01:09;2.90;;;1.97;;
7029;SDS011;3556;53.500;10.176;2023-09-19T01:03:36;2.07;;;1.97;;
7029;SDS011;3556;53.500;10.176;2023-09-19T01:06:02;2.40;;;2.20;;
7029;SDS011;3556;53.500;10.176;2023-09-19T01:08:28;4.10;;;2.23;;
7029;SDS011;3556;53.500;10.176;2023-09-19T01:11:38;3.93;;;2.80;;
7029;SDS011;3556;53.500;10.176;2023-09-19T01:14:09;6.03;;;2.90;;
7029;SDS011;3556;53.500;10.176;2023-09-19T01:22:26;6.70;;;2.70;;
7029;SDS011;3556;53.500;10.176;2023-09-19T01:27:38;3.63;;;3.03;;
7029;SDS011;3556;53.500;10.176;2023-09-19T01:30:26;6.00;;;3.00;;
7029;SDS011;3556;53.500;10.176;2023-09-19T01:32:57;4.00;;;3.40;;
7029;SDS011;3556;53.500;10.176;2023-09-19T01:35:24;5.37;;;3.50;;
7029;SDS011;3556;53.500;10.176;2023-09-19T01:37:50;3.97;;;3.43;;
7029;SDS011;3556;53.500;10.176;2023-09-19T01:40:17;7.20;;;3.53;;
7029;SDS011;3556;53.500;10.176;2023-09-19T01:52:08;8.30;;;3.43;;
7029;SDS011;3556;53.500;10.176;2023-09-19T01:54:20;5.27;;;3.30;;
7029;SDS011;3556;53.500;10.176;2023-09-19T01:56:59;4.07;;;3.40;;
7029;SDS011;3556;53.500;10.176;2023-09-19T01:59:35;4.17;;;3.40;;
7029;SDS011;3556;53.500;10.176;2023-09-19T02:02:06;4.33;;;2.77;;
7029;SDS011;3556;53.500;10.176;2023-09-19T02:04:33;10.87;;;3.40;;
7029;SDS011;3556;53.500;10.176;2023-09-19T02:07:02;3.90;;;2.83;;
7029;SDS011;3556;53.500;10.176;2023-09-19T02:09:30;6.83;;;3.20;;
7029;SDS011;3556;53.500;10.176;2023-09-19T02:11:56;6.17;;;3.57;;
7029;SDS011;3556;53.500;10.176;2023-09-19T02:14:22;6.10;;;3.60;;
7029;SDS011;3556;53.500;10.176;2023-09-19T02:16:47;6.27;;;3.47;;
7029;SDS011;3556;53.500;10.176;2023-09-19T02:19:14;5.00;;;3.03;;
7029;SDS011;3556;53.500;10.176;2023-09-19T02:21:40;4.10;;;3.30;;
7029;SDS011;3556;53.500;10.176;2023-09-19T02:24:06;4.83;;;4.03;;
7029;SDS011;3556;53.500;10.176;2023-09-19T02:26:33;6.17;;;3.33;;
7029;SDS011;3556;53.500;10.176;2023-09-19T02:29:01;6.93;;;3.40;;
7029;SDS011;3556;53.500;10.176;2023-09-19T02:31:29;4.90;;;3.63;;
7029;SDS011;3556;53.500;10.176;2023-09-19T02:33:55;5.20;;;3.37;;
7029;SDS011;3556;53.500;10.176;2023-09-19T02:36:21;6.30;;;3.67;;
7029;SDS011;3556;53.500;10.176;2023-09-19T02:38:48;4.47;;;3.30;;
7029;SDS011;3556;53.500;10.176;2023-09-19T02:41:14;6.60;;;3.60;;
7029;SDS011;3556;53.500;10.176;2023-09-19T02:43:40;4.77;;;4.27;;
7029;SDS011;3556;53.500;10.176;2023-09-19T02:46:07;6.93;;;3.57;;
7029;SDS011;3556;53.500;10.176;2023-09-19T02:48:34;7.60;;;4.13;;
7029;SDS011;3556;53.500;10.176;2023-09-19T02:51:01;11.50;;;3.47;;
7029;SDS011;3556;53.500;10.176;2023-09-19T02:53:28;6.20;;;3.20;;
7029;SDS011;3556;53.500;10.176;2023-09-19T02:55:55;3.60;;;3.30;;
7029;SDS011;3556;53.500;10.176;2023-09-19T02:58:21;6.37;;;3.23;;
7029;SDS011;3556;53.500;10.176;2023-09-19T03:00:48;6.37;;;3.70;;
7029;SDS011;3556;53.500;10.176;2023-09-19T03:03:14;3.67;;;3.03;;
7029;SDS011;3556;53.500;10.176;2023-09-19T03:05:43;6.00;;;3.37;;
7029;SDS011;3556;53.500;10.176;2023-09-19T03:08:12;11.43;;;3.20;;
7029;SDS011;3556;53.500;10.176;2023-09-19T03:10:40;5.93;;;3.90;;
7029;SDS011;3556;53.500;10.176;2023-09-19T03:13:05;5.93;;;3.07;;
7029;SDS011;3556;53.500;10.176;2023-09-19T03:15:34;7.30;;;3.43;;
7029;SDS011;3556;53.500;10.176;2023-09-19T03:18:03;7.33;;;3.77;;
7029;SDS011;3556;53.500;10.176;2023-09-19T03:20:29;4.03;;;3.23;;
7029;SDS011;3556;53.500;10.176;2023-09-19T03:22:55;11.37;;;3.30;;
7029;SDS011;3556;53.500;10.176;2023-09-19T03:25:22;7.90;;;3.50;;
7029;SDS011;3556;53.500;10.176;2023-09-19T03:27:48;7.43;;;3.37;;
7029;SDS011;3556;53.500;10.176;2023-09-19T03:30:13;7.03;;;3.10;;
7029;SDS011;3556;53.500;10.176;2023-09-19T03:32:48;4.87;;;3.10;;
7029;SDS011;3556;53.500;10.176;2023-09-19T03:35:15;5.10;;;2.70;;
7029;SDS011;3556;53.500;10.176;2023-09-19T03:37:41;5.87;;;3.13;;
7029;SDS011;3556;53.500;10.176;2023-09-19T03:40:11;4.20;;;2.70;;
7029;SDS011;3556;53.500;10.176;2023-09-19T03:42:40;4.17;;;2.30;;
7029;SDS011;3556;53.500;10.176;2023-09-19T03:45:09;4.10;;;2.30;;
7029;SDS011;3556;53.500;10.176;2023-09-19T03:47:40;3.53;;;1.97;;
7029;SDS011;3556;53.500;10.176;2023-09-19T03:50:06;4.67;;;2.50;;
7029;SDS011;3556;53.500;10.176;2023-09-19T03:52:33;6.53;;;3.43;;
7029;SDS011;3556;53.500;10.176;2023-09-19T03:54:59;3.70;;;1.97;;
7029;SDS011;3556;53.500;10.176;2023-09-19T03:57:25;7.90;;;2.57;;
7029;SDS011;3556;53.500;10.176;2023-09-19T03:59:51;11.20;;;2.60;;
7029;SDS011;3556;53.500;10.176;2023-09-19T04:02:18;3.57;;;1.70;;
7029;SDS011;3556;53.500;10.176;2023-09-19T04:04:51;2.50;;;1.53;;
7029;SDS011;3556;53.500;10.176;2023-09-19T04:07:17;4.07;;;1.70;;
7029;SDS011;3556;53.500;10.176;2023-09-19T04:09:44;8.20;;;1.80;;
7029;SDS011;3556;53.500;10.176;2023-09-19T04:12:10;5.57;;;1.73;;
7029;SDS011;3556;53.500;10.176;2023-09-19T04:14:37;4.63;;;1.50;;
7029;SDS011;3556;53.500;10.176;2023-09-19T04:17:03;6.40;;;1.77;;
7029;SDS011;3556;53.500;10.176;2023-09-19T04:19:30;2.27;;;1.30;;
7029;SDS011;3556;53.500;10.176;2023-09-19T04:21:56;3.93;;;1.70;;
7029;SDS011;3556;53.500;10.176;2023-09-19T04:24:21;2.90;;;1.20;;
7029;SDS011;3556;53.500;10.176;2023-09-19T04:26:47;4.53;;;1.80;;
7029;SDS011;3556;53.500;10.176;2023-09-19T04:29:13;4.20;;;1.67;;
7029;SDS011;3556;53.500;10.176;2023-09-19T04:31:39;8.10;;;1.30;;
7029;SDS011;3556;53.500;10.176;2023-09-19T04:34:05;3.47;;;1.33;;
7029;SDS011;3556;53.500;10.176;2023-09-19T04:36:31;4.17;;;1.60;;
7029;SDS011;3556;53.500;10.176;2023-09-19T04:38:56;5.40;;;1.60;;
7029;SDS011;3556;53.500;10.176;2023-09-19T04:41:22;6.93;;;1.37;;
7029;SDS011;3556;53.500;10.176;2023-09-19T04:43:48;1.97;;;1.23;;
7029;SDS011;3556;53.500;10.176;2023-09-19T04:46:15;9.60;;;1.50;;
7029;SDS011;3556;53.500;10.176;2023-09-19T04:48:42;5.77;;;1.80;;
7029;SDS011;3556;53.500;10.176;2023-09-19T04:51:08;3.43;;;1.17;;
7029;SDS011;3556;53.500;10.176;2023-09-19T04:53:35;5.87;;;1.70;;
7029;SDS011;3556;53.500;10.176;2023-09-19T04:56:01;4.60;;;1.30;;
7029;SDS011;3556;53.500;10.176;2023-09-19T04:58:30;5.37;;;1.60;;
7029;SDS011;3556;53.500;10.176;2023-09-19T05:00:56;3.93;;;1.20;;
7029;SDS011;3556;53.500;10.176;2023-09-19T05:03:21;3.00;;;1.60;;
7029;SDS011;3556;53.500;10.176;2023-09-19T05:05:47;8.80;;;1.60;;
7029;SDS011;3556;53.500;10.176;2023-09-19T05:08:13;2.80;;;1.40;;
7029;SDS011;3556;53.500;10.176;2023-09-19T05:10:39;14.93;;;1.70;;
7029;SDS011;3556;53.500;10.176;2023-09-19T05:13:05;5.63;;;1.87;;
7029;SDS011;3556;53.500;10.176;2023-09-19T05:15:32;5.20;;;1.43;;
7029;SDS011;3556;53.500;10.176;2023-09-19T05:17:58;6.13;;;1.80;;
7029;SDS011;3556;53.500;10.176;2023-09-19T05:20:24;11.47;;;2.00;;
7029;SDS011;3556;53.500;10.176;2023-09-19T05:23:24;2.33;;;1.40;;
7029;SDS011;3556;53.500;10.176;2023-09-19T05:25:46;4.03;;;1.57;;
7029;SDS011;3556;53.500;10.176;2023-09-19T05:28:11;6.60;;;1.43;;
7029;SDS011;3556;53.500;10.176;2023-09-19T05:30:40;8.50;;;2.00;;
7029;SDS011;3556;53.500;10.176;2023-09-19T05:33:08;7.50;;;1.70;;
7029;SDS011;3556;53.500;10.176;2023-09-19T05:35:34;7.03;;;1.40;;
7029;SDS011;3556;53.500;10.176;2023-09-19T05:38:01;5.87;;;1.70;;
7029;SDS011;3556;53.500;10.176;2023-09-19T05:40:27;3.47;;;2.03;;
7029;SDS011;3556;53.500;10.176;2023-09-19T05:42:53;4.50;;;1.40;;
7029;SDS011;3556;53.500;10.176;2023-09-19T05:45:18;6.63;;;2.10;;
7029;SDS011;3556;53.500;10.176;2023-09-19T05:47:47;7.70;;;1.20;;
7029;SDS011;3556;53.500;10.176;2023-09-19T05:50:14;8.00;;;1.83;;
7029;SDS011;3556;53.500;10.176;2023-09-19T05:52:41;3.53;;;1.80;;
7029;SDS011;3556;53.500;10.176;2023-09-19T05:55:08;6.60;;;1.60;;
7029;SDS011;3556;53.500;10.176;2023-09-19T05:57:37;3.63;;;1.50;;
7029;SDS011;3556;53.500;10.176;2023-09-19T06:00:09;7.10;;;1.90;;
7029;SDS011;3556;53.500;10.176;2023-09-19T06:02:36;6.07;;;1.60;;
7029;SDS011;3556;53.500;10.176;2023-09-19T06:05:04;3.83;;;1.60;;
7029;SDS011;3556;53.500;10.176;2023-09-19T06:07:31;6.70;;;1.70;;
7029;SDS011;3556;53.500;10.176;2023-09-19T06:10:01;6.83;;;1.90;;
7029;SDS011;3556;53.500;10.176;2023-09-19T06:12:31;4.20;;;1.40;;
7029;SDS011;3556;53.500;10.176;2023-09-19T06:15:02;4.90;;;1.70;;
7029;SDS011;3556;53.500;10.176;2023-09-19T06:17:30;8.63;;;1.90;;
7029;SDS011;3556;53.500;10.176;2023-09-19T06:19:56;8.07;;;2.20;;
7029;SDS011;3556;53.500;10.176;2023-09-19T06:22:21;8.80;;;1.47;;
7029;SDS011;3556;53.500;10.176;2023-09-19T06:24:49;5.67;;;1.90;;
7029;SDS011;3556;53.500;10.176;2023-09-19T06:27:14;8.63;;;1.97;;
7029;SDS011;3556;53.500;10.176;2023-09-19T06:29:40;3.10;;;1.67;;
7029;SDS011;3556;53.500;10.176;2023-09-19T06:32:07;6.73;;;1.87;;
7029;SDS011;3556;53.500;10.176;2023-09-19T06:34:34;8.70;;;1.93;;
7029;SDS011;3556;53.500;10.176;2023-09-19T06:36:59;7.97;;;2.10;;
7029;SDS011;3556;53.500;10.176;2023-09-19T06:39:25;7.53;;;1.90;;
7029;SDS011;3556;53.500;10.176;2023-09-19T06:41:51;4.80;;;1.70;;
7029;SDS011;3556;53.500;10.176;2023-09-19T06:44:18;5.87;;;2.00;;
7029;SDS011;3556;53.500;10.176;2023-09-19T06:46:46;3.40;;;1.70;;
7029;SDS011;3556;53.500;10.176;2023-09-19T06:49:15;5.90;;;2.00;;
7029;SDS011;3556;53.500;10.176;2023-09-19T06:51:40;7.20;;;2.10;;
7029;SDS011;3556;53.500;10.176;2023-09-19T06:54:07;5.80;;;2.70;;
7029;SDS011;3556;53.500;10.176;2023-09-19T06:56:32;3.80;;;1.80;;
7029;SDS011;3556;53.500;10.176;2023-09-19T06:58:58;5.93;;;2.00;;
7029;SDS011;3556;53.500;10.176;2023-09-19T07:01:23;7.10;;;2.20;;
7029;SDS011;3556;53.500;10.176;2023-09-19T07:03:50;6.57;;;1.83;;
7029;SDS011;3556;53.500;10.176;2023-09-19T07:06:16;8.17;;;2.10;;
7029;SDS011;3556;53.500;10.176;2023-09-19T07:08:41;3.00;;;1.97;;
7029;SDS011;3556;53.500;10.176;2023-09-19T07:11:08;3.73;;;1.83;;
7029;SDS011;3556;53.500;10.176;2023-09-19T07:13:33;10.73;;;2.10;;
7029;SDS011;3556;53.500;10.176;2023-09-19T07:16:00;6.83;;;2.10;;
7029;SDS011;3556;53.500;10.176;2023-09-19T07:18:26;3.37;;;2.00;;
7029;SDS011;3556;53.500;10.176;2023-09-19T07:20:56;5.83;;;2.30;;
7029;SDS011;3556;53.500;10.176;2023-09-19T07:23:26;7.70;;;2.33;;
7029;SDS011;3556;53.500;10.176;2023-09-19T07:25:52;5.53;;;1.90;;
7029;SDS011;3556;53.500;10.176;2023-09-19T07:28:22;7.80;;;2.50;;
7029;SDS011;3556;53.500;10.176;2023-09-19T07:30:48;5.57;;;2.33;;
7029;SDS011;3556;53.500;10.176;2023-09-19T07:33:13;4.40;;;2.10;;
7029;SDS011;3556;53.500;10.176;2023-09-19T07:35:39;4.60;;;2.40;;
7029;SDS011;3556;53.500;10.176;2023-09-19T07:38:05;8.03;;;2.37;;
7029;SDS011;3556;53.500;10.176;2023-09-19T07:40:31;7.87;;;2.47;;
7029;SDS011;3556;53.500;10.176;2023-09-19T07:42:57;7.73;;;2.30;;
7029;SDS011;3556;53.500;10.176;2023-09-19T07:45:26;6.50;;;2.37;;
7029;SDS011;3556;53.500;10.176;2023-09-19T07:47:55;9.07;;;2.60;;
7029;SDS011;3556;53.500;10.176;2023-09-19T07:50:21;9.53;;;2.70;;
7029;SDS011;3556;53.500;10.176;2023-09-19T07:52:48;9.87;;;2.57;;
7029;SDS011;3556;53.500;10.176;2023-09-19T07:55:15;11.80;;;2.70;;
7029;SDS011;3556;53.500;10.176;2023-09-19T07:57:42;8.03;;;2.30;;
7029;SDS011;3556;53.500;10.176;2023-09-19T08:00:09;4.13;;;2.20;;
7029;SDS011;3556;53.500;10.176;2023-09-19T08:02:37;6.37;;;2.53;;
7029;SDS011;3556;53.500;10.176;2023-09-19T08:05:04;7.43;;;2.53;;
7029;SDS011;3556;53.500;10.176;2023-09-19T08:07:37;8.10;;;2.83;;
7029;SDS011;3556;53.500;10.176;2023-09-19T08:10:07;8.10;;;2.70;;
7029;SDS011;3556;53.500;10.176;2023-09-19T08:12:35;11.27;;;2.50;;
7029;SDS011;3556;53.500;10.176;2023-09-19T08:15:01;10.53;;;2.27;;
7029;SDS011;3556;53.500;10.176;2023-09-19T08:17:34;7.63;;;2.27;;
7029;SDS011;3556;53.500;10.176;2023-09-19T08:19:59;5.27;;;2.10;;
7029;SDS011;3556;53.500;10.176;2023-09-19T08:22:25;8.43;;;2.60;;
7029;SDS011;3556;53.500;10.176;2023-09-19T08:24:52;9.17;;;2.40;;
7029;SDS011;3556;53.500;10.176;2023-09-19T08:27:18;5.33;;;2.40;;
7029;SDS011;3556;53.500;10.176;2023-09-19T08:29:44;8.07;;;2.37;;
7029;SDS011;3556;53.500;10.176;2023-09-19T08:32:11;6.50;;;2.77;;
7029;SDS011;3556;53.500;10.176;2023-09-19T08:34:37;3.13;;;1.80;;
7029;SDS011;3556;53.500;10.176;2023-09-19T08:37:03;4.03;;;2.30;;
7029;SDS011;3556;53.500;10.176;2023-09-19T08:39:29;6.40;;;2.37;;
7029;SDS011;3556;53.500;10.176;2023-09-19T08:41:59;10.77;;;2.60;;
7029;SDS011;3556;53.500;10.176;2023-09-19T08:44:25;8.30;;;2.33;;
7029;SDS011;3556;53.500;10.176;2023-09-19T08:47:10;8.03;;;2.10;;
7029;SDS011;3556;53.500;10.176;2023-09-19T08:52:32;9.00;;;1.90;;
7029;SDS011;3556;53.500;10.176;2023-09-19T08:55:02;6.70;;;2.37;;
7029;SDS011;3556;53.500;10.176;2023-09-19T08:57:35;13.27;;;2.23;;
7029;SDS011;3556;53.500;10.176;2023-09-19T09:00:02;5.83;;;2.10;;
7029;SDS011;3556;53.500;10.176;2023-09-19T09:02:37;13.47;;;2.43;;
7029;SDS011;3556;53.500;10.176;2023-09-19T09:05:06;4.77;;;2.20;;
7029;SDS011;3556;53.500;10.176;2023-09-19T09:07:36;5.40;;;2.13;;
7029;SDS011;3556;53.500;10.176;2023-09-19T09:10:03;4.77;;;1.90;;
7029;SDS011;3556;53.500;10.176;2023-09-19T09:12:29;8.90;;;2.40;;
7029;SDS011;3556;53.500;10.176;2023-09-19T09:14:55;7.23;;;2.10;;
7029;SDS011;3556;53.500;10.176;2023-09-19T09:17:22;9.60;;;2.23;;
7029;SDS011;3556;53.500;10.176;2023-09-19T09:19:49;9.60;;;2.90;;
7029;SDS011;3556;53.500;10.176;2023-09-19T09:22:18;6.43;;;2.23;;
7029;SDS011;3556;53.500;10.176;2023-09-19T09:24:56;9.83;;;2.57;;
7029;SDS011;3556;53.500;10.176;2023-09-19T09:27:30;12.53;;;2.40;;
7029;SDS011;3556;53.500;10.176;2023-09-19T09:29:56;5.57;;;2.00;;
7029;SDS011;3556;53.500;10.176;2023-09-19T09:32:25;7.40;;;2.30;;
7029;SDS011;3556;53.500;10.176;2023-09-19T09:34:57;5.80;;;3.00;;
7029;SDS011;3556;53.500;10.176;2023-09-19T09:37:25;9.23;;;1.73;;
7029;SDS011;3556;53.500;10.176;2023-09-19T09:39:57;13.03;;;2.10;;
7029;SDS011;3556;53.500;10.176;2023-09-19T09:42:42;10.30;;;2.23;;
7029;SDS011;3556;53.500;10.176;2023-09-19T09:45:44;5.90;;;1.87;;
7029;SDS011;3556;53.500;10.176;2023-09-19T09:48:03;3.27;;;1.50;;
7029;SDS011;3556;53.500;10.176;2023-09-19T09:50:39;10.80;;;1.80;;
7029;SDS011;3556;53.500;10.176;2023-09-19T09:53:22;11.03;;;2.07;;
7029;SDS011;3556;53.500;10.176;2023-09-19T09:55:59;5.77;;;1.70;;
7029;SDS011;3556;53.500;10.176;2023-09-19T09:58:31;4.87;;;1.63;;
7029;SDS011;3556;53.500;10.176;2023-09-19T10:01:24;3.30;;;1.70;;
7029;SDS011;3556;53.500;10.176;2023-09-19T10:03:56;5.60;;;1.90;;
7029;SDS011;3556;53.500;10.176;2023-09-19T10:06:23;5.00;;;2.07;;
7029;SDS011;3556;53.500;10.176;2023-09-19T10:11:46;5.10;;;1.83;;
7029;SDS011;3556;53.500;10.176;2023-09-19T10:14:22;6.50;;;1.50;;
7029;SDS011;3556;53.500;10.176;2023-09-19T10:16:56;6.03;;;2.40;;
7029;SDS011;3556;53.500;10.176;2023-09-19T10:19:42;3.70;;;1.50;;
7029;SDS011;3556;53.500;10.176;2023-09-19T10:22:11;8.20;;;1.80;;
7029;SDS011;3556;53.500;10.176;2023-09-19T10:24:39;6.77;;;2.10;;
7029;SDS011;3556;53.500;10.176;2023-09-19T10:27:06;10.70;;;2.00;;
7029;SDS011;3556;53.500;10.176;2023-09-19T10:29:36;3.93;;;1.47;;
7029;SDS011;3556;53.500;10.176;2023-09-19T10:32:05;5.10;;;1.63;;
7029;SDS011;3556;53.500;10.176;2023-09-19T10:34:33;3.30;;;1.30;;
7029;SDS011;3556;53.500;10.176;2023-09-19T10:37:01;6.10;;;1.70;;
7029;SDS011;3556;53.500;10.176;2023-09-19T10:39:31;5.67;;;1.57;;
7029;SDS011;3556;53.500;10.176;2023-09-19T10:41:58;8.90;;;1.60;;
7029;SDS011;3556;53.500;10.176;2023-09-19T10:44:31;3.23;;;1.47;;
7029;SDS011;3556;53.500;10.176;2023-09-19T10:46:58;7.70;;;1.97;;
7029;SDS011;3556;53.500;10.176;2023-09-19T10:49:24;2.77;;;1.50;;
7029;SDS011;3556;53.500;10.176;2023-09-19T10:51:52;4.13;;;1.50;;
7029;SDS011;3556;53.500;10.176;2023-09-19T10:54:23;4.63;;;1.73;;
7029;SDS011;3556;53.500;10.176;2023-09-19T10:56:52;3.63;;;1.63;;
7029;SDS011;3556;53.500;10.176;2023-09-19T10:59:19;5.60;;;1.97;;
7029;SDS011;3556;53.500;10.176;2023-09-19T11:04:25;15.63;;;1.70;;
7029;SDS011;3556;53.500;10.176;2023-09-19T11:07:05;4.43;;;1.10;;
7029;SDS011;3556;53.500;10.176;2023-09-19T11:14:51;8.03;;;1.77;;
7029;SDS011;3556;53.500;10.176;2023-09-19T11:30:33;4.20;;;1.37;;
7029;SDS011;3556;53.500;10.176;2023-09-19T11:33:16;5.57;;;2.10;;
7029;SDS011;3556;53.500;10.176;2023-09-19T11:49:17;3.80;;;1.37;;
7029;SDS011;3556;53.500;10.176;2023-09-19T11:51:58;3.50;;;2.20;;
7029;SDS011;3556;53.500;10.176;2023-09-19T11:54:30;8.53;;;1.67;;
7029;SDS011;3556;53.500;10.176;2023-09-19T11:56:57;3.10;;;1.43;;
7029;SDS011;3556;53.500;10.176;2023-09-19T11:59:25;7.67;;;2.03;;
7029;SDS011;3556;53.500;10.176;2023-09-19T12:01:55;7.73;;;1.90;;
7029;SDS011;3556;53.500;10.176;2023-09-19T12:04:34;8.10;;;1.80;;
7029;SDS011;3556;53.500;10.176;2023-09-19T12:07:06;7.53;;;1.60;;
7029;SDS011;3556;53.500;10.176;2023-09-19T12:09:37;4.53;;;1.70;;
7029;SDS011;3556;53.500;10.176;2023-09-19T12:12:04;7.07;;;1.30;;
7029;SDS011;3556;53.500;10.176;2023-09-19T12:14:30;10.07;;;1.40;;
7029;SDS011;3556;53.500;10.176;2023-09-19T12:16:56;6.00;;;1.83;;
7029;SDS011;3556;53.500;10.176;2023-09-19T12:19:23;5.63;;;2.00;;
7029;SDS011;3556;53.500;10.176;2023-09-19T12:21:59;6.60;;;2.00;;
7029;SDS011;3556;53.500;10.176;2023-09-19T12:24:34;3.03;;;1.83;;
7029;SDS011;3556;53.500;10.176;2023-09-19T12:27:04;3.50;;;1.63;;
7029;SDS011;3556;53.500;10.176;2023-09-19T12:29:31;6.10;;;1.70;;
7029;SDS011;3556;53.500;10.176;2023-09-19T12:32:13;5.03;;;1.67;;
7029;SDS011;3556;53.500;10.176;2023-09-19T12:34:41;7.47;;;1.63;;
7029;SDS011;3556;53.500;10.176;2023-09-19T12:39:44;6.43;;;1.80;;
7029;SDS011;3556;53.500;10.176;2023-09-19T12:42:20;6.93;;;1.97;;
7029;SDS011;3556;53.500;10.176;2023-09-19T12:44:54;7.30;;;2.10;;
7029;SDS011;3556;53.500;10.176;2023-09-19T12:47:22;7.00;;;1.77;;
7029;SDS011;3556;53.500;10.176;2023-09-19T12:50:08;9.07;;;1.97;;
7029;SDS011;3556;53.500;10.176;2023-09-19T12:55:20;10.83;;;2.27;;
7029;SDS011;3556;53.500;10.176;2023-09-19T12:58:01;6.50;;;1.80;;
7029;SDS011;3556;53.500;10.176;2023-09-19T13:00:38;4.33;;;1.63;;
7029;SDS011;3556;53.500;10.176;2023-09-19T13:03:10;4.30;;;2.10;;
7029;SDS011;3556;53.500;10.176;2023-09-19T13:05:56;7.03;;;1.70;;
7029;SDS011;3556;53.500;10.176;2023-09-19T13:08:26;4.50;;;1.70;;
7029;SDS011;3556;53.500;10.176;2023-09-19T13:11:11;6.20;;;2.00;;
7029;SDS011;3556;53.500;10.176;2023-09-19T13:13:38;4.80;;;1.60;;
7029;SDS011;3556;53.500;10.176;2023-09-19T13:16:14;9.80;;;2.27;;
7029;SDS011;3556;53.500;10.176;2023-09-19T13:18:45;6.60;;;1.90;;
7029;SDS011;3556;53.500;10.176;2023-09-19T13:21:16;7.03;;;1.70;;
7029;SDS011;3556;53.500;10.176;2023-09-19T13:23:49;10.00;;;1.93;;
7029;SDS011;3556;53.500;10.176;2023-09-19T13:26:16;5.07;;;2.10;;
7029;SDS011;3556;53.500;10.176;2023-09-19T13:28:42;7.33;;;2.07;;
7029;SDS011;3556;53.500;10.176;2023-09-19T13:31:09;8.37;;;2.10;;
7029;SDS011;3556;53.500;10.176;2023-09-19T13:33:42;6.20;;;2.13;;
7029;SDS011;3556;53.500;10.176;2023-09-19T13:36:11;5.27;;;1.90;;
7029;SDS011;3556;53.500;10.176;2023-09-19T13:38:38;7.87;;;1.93;;
7029;SDS011;3556;53.500;10.176;2023-09-19T13:41:05;11.27;;;1.73;;
7029;SDS011;3556;53.500;10.176;2023-09-19T13:43:31;5.77;;;1.87;;
7029;SDS011;3556;53.500;10.176;2023-09-19T13:45:56;9.43;;;2.37;;
7029;SDS011;3556;53.500;10.176;2023-09-19T13:48:22;17.63;;;2.10;;
7029;SDS011;3556;53.500;10.176;2023-09-19T13:50:49;6.40;;;2.23;;
7029;SDS011;3556;53.500;10.176;2023-09-19T13:53:15;5.27;;;1.90;;
7029;SDS011;3556;53.500;10.176;2023-09-19T13:55:41;9.50;;;2.40;;
7029;SDS011;3556;53.500;10.176;2023-09-19T13:58:07;4.60;;;1.53;;
7029;SDS011;3556;53.500;10.176;2023-09-19T14:00:35;11.67;;;2.40;;
7029;SDS011;3556;53.500;10.176;2023-09-19T14:03:03;7.60;;;1.97;;
7029;SDS011;3556;53.500;10.176;2023-09-19T14:05:30;3.33;;;1.53;;
7029;SDS011;3556;53.500;10.176;2023-09-19T14:07:56;9.97;;;2.07;;
7029;SDS011;3556;53.500;10.176;2023-09-19T14:10:24;7.20;;;2.00;;
7029;SDS011;3556;53.500;10.176;2023-09-19T14:12:52;8.60;;;1.83;;
7029;SDS011;3556;53.500;10.176;2023-09-19T14:15:18;5.23;;;1.73;;
7029;SDS011;3556;53.500;10.176;2023-09-19T14:17:43;5.67;;;1.93;;
7029;SDS011;3556;53.500;10.176;2023-09-19T14:20:12;5.90;;;1.70;;
7029;SDS011;3556;53.500;10.176;2023-09-19T14:22:38;5.53;;;1.93;;
7029;SDS011;3556;53.500;10.176;2023-09-19T14:25:04;5.63;;;2.10;;
7029;SDS011;3556;53.500;10.176;2023-09-19T14:27:30;3.50;;;1.80;;
7029;SDS011;3556;53.500;10.176;2023-09-19T14:29:56;14.13;;;1.90;;
7029;SDS011;3556;53.500;10.176;2023-09-19T14:32:22;6.60;;;1.83;;
7029;SDS011;3556;53.500;10.176;2023-09-19T14:34:48;5.97;;;1.90;;
7029;SDS011;3556;53.500;10.176;2023-09-19T14:37:14;7.20;;;2.00;;
7029;SDS011;3556;53.500;10.176;2023-09-19T14:39:41;6.93;;;1.80;;
7029;SDS011;3556;53.500;10.176;2023-09-19T14:42:09;6.07;;;1.70;;
7029;SDS011;3556;53.500;10.176;2023-09-19T14:44:35;6.33;;;1.70;;
7029;SDS011;3556;53.500;10.176;2023-09-19T14:47:02;3.57;;;1.57;;
7029;SDS011;3556;53.500;10.176;2023-09-19T14:49:32;7.33;;;2.10;;
7029;SDS011;3556;53.500;10.176;2023-09-19T14:51:58;18.63;;;2.30;;
7029;SDS011;3556;53.500;10.176;2023-09-19T14:54:24;6.00;;;1.83;;
7029;SDS011;3556;53.500;10.176;2023-09-19T14:56:50;7.67;;;2.33;;
7029;SDS011;3556;53.500;10.176;2023-09-19T14:59:28;7.23;;;1.70;;
7029;SDS011;3556;53.500;10.176;2023-09-19T15:01:55;4.40;;;1.87;;
7029;SDS011;3556;53.500;10.176;2023-09-19T15:04:21;4.37;;;1.80;;
7029;SDS011;3556;53.500;10.176;2023-09-19T15:06:46;9.30;;;2.20;;
7029;SDS011;3556;53.500;10.176;2023-09-19T15:09:13;9.13;;;2.13;;
7029;SDS011;3556;53.500;10.176;2023-09-19T15:11:39;5.10;;;1.80;;
7029;SDS011;3556;53.500;10.176;2023-09-19T15:14:04;7.20;;;2.00;;
7029;SDS011;3556;53.500;10.176;2023-09-19T15:16:30;5.90;;;2.23;;
7029;SDS011;3556;53.500;10.176;2023-09-19T15:18:57;6.03;;;2.03;;
7029;SDS011;3556;53.500;10.176;2023-09-19T15:21:23;5.57;;;2.30;;
7029;SDS011;3556;53.500;10.176;2023-09-19T15:23:49;8.97;;;2.53;;
7029;SDS011;3556;53.500;10.176;2023-09-19T15:26:15;5.53;;;2.17;;
7029;SDS011;3556;53.500;10.176;2023-09-19T15:28:45;5.80;;;2.40;;
7029;SDS011;3556;53.500;10.176;2023-09-19T15:31:11;8.80;;;2.60;;
7029;SDS011;3556;53.500;10.176;2023-09-19T15:33:37;6.83;;;2.60;;
7029;SDS011;3556;53.500;10.176;2023-09-19T15:36:04;13.70;;;2.70;;
7029;SDS011;3556;53.500;10.176;2023-09-19T15:41:22;3.60;;;2.37;;
7029;SDS011;3556;53.500;10.176;2023-09-19T15:43:49;6.93;;;2.53;;
7029;SDS011;3556;53.500;10.176;2023-09-19T15:46:15;10.10;;;2.80;;
7029;SDS011;3556;53.500;10.176;2023-09-19T15:48:41;8.00;;;2.80;;
7029;SDS011;3556;53.500;10.176;2023-09-19T15:51:07;11.60;;;2.80;;
7029;SDS011;3556;53.500;10.176;2023-09-19T15:53:43;6.97;;;2.67;;
7029;SDS011;3556;53.500;10.176;2023-09-19T15:56:10;9.67;;;2.80;;
7029;SDS011;3556;53.500;10.176;2023-09-19T15:58:36;6.73;;;2.63;;
7029;SDS011;3556;53.500;10.176;2023-09-19T16:01:04;12.80;;;2.53;;
7029;SDS011;3556;53.500;10.176;2023-09-19T16:03:33;8.17;;;2.80;;
7029;SDS011;3556;53.500;10.176;2023-09-19T16:06:00;5.30;;;2.50;;
7029;SDS011;3556;53.500;10.176;2023-09-19T16:08:26;6.80;;;2.80;;
7029;SDS011;3556;53.500;10.176;2023-09-19T16:10:52;6.30;;;2.87;;
7029;SDS011;3556;53.500;10.176;2023-09-19T16:13:17;3.97;;;2.30;;
7029;SDS011;3556;53.500;10.176;2023-09-19T16:15:43;4.87;;;2.43;;